Terminal Aerodrome Forecast
Issued by NWS

Home | Current Version | Previous Version | Text Only | Print | Product List | Glossary On
Versions: 1 2 3 4 5 6 7 8 9 10 11 12 13 14 15 16 17 18 19 20 21
000
FTAK31 PANC 280530
TAFATK
TAF
PATK 280530Z 2806/2906 VRB05KT P6SM VCSH BKN080
     FM281200 VRB03KT 1SM BR BKN005
     FM281900 VRB03KT P6SM VCSH BKN060=

USA.gov is the U.S. government's official web portal to all federal, state and local government web resources and services.